Detroit, Michigan
Traffic Map
Current Weather Conditions
Detroit, Michigan
Broken Clouds
Broken Clouds

Feels Like: 0°
Wind Chill: Ceiling: 25000
Heat Index: Visibility: 15mi
Dew Point: Wind: 17mph
Humidity: 87% Direction: 30° (NNE)
Pressure: 29.83in Gusts: 0mph
Raw Report DataCYQG 240100Z 03015KT 15SM BKN250 05/03 A2983 RMK CI5 SLP107
Traffic Incident Summary
Active as of:
Severity:
Category:
InformationThere was an issue retrieving the traffic information for this location. Please try a different location or try again shortly.
Advertisements
Track Severe Weather on mobile